Terminal Aerodrome Forecast
Issued by NWS Mt. Holly, NJ

Home | Current Version | Previous Version | Text Only | Print | Product List | Glossary On
Versions: 1 2 3 4 5 6 7 8 9 10 11 12 13 14 15 16 17 18 19
000
FTUS41 KPHI 050149 AAA
TAFILG
TAF AMD
KILG 050149Z 0502/0524 06008KT P6SM SCT025 OVC035
     FM050400 05006KT P6SM SCT040 BKN150
     FM050600 VRB03KT P6SM FEW050 BKN250
     FM051200 01003KT P6SM SCT250
     FM051600 17006KT P6SM FEW050=

USA.gov is the U.S. government's official web portal to all federal, state and local government web resources and services.